KFLL

Fort Lauderdale / Hollywood International Airport

Fort Lauderdale, Florida, USA
METAR KFLL 210453Z 01003KT 10SM FEW027 SCT110 SCT250 26/24 A3010 RMK AO2 SLP193 T02610244 403220261 $
Observed Flight Rules
Aug-21 @ 04:53 UTC (9 hours ago) Visual Flight Rules
Wind Visibility Clouds
10° at 3 knots 10 miles
  • Few at 2,700' AGL
  • Scattered at 11,000' AGL
  • Scattered at 25,000' AGL
Temperatures Readings
Current 26°C / 79°F
Dewpoint 24°C / 75°F
Humidity 89%
Altimeter 30.1" Hg
Pressure 1019.3 hPa
Elevation 3
METAR KFLL 210453Z 01003KT 10SM FEW027 SCT110 SCT250 26/24 A3010 RMK AO2 SLP193 T02610244 403220261 $
Observed Flight Rules
Aug-21 @ 04:53 UTC
(9 hours ago)
VFR
Wind Visibility
10° at 3 knots 10 miles
Clouds
  • Few at 2,700' AGL
  • Scattered at 11,000' AGL
  • Scattered at 25,000' AGL
Temperature Dewpoint
26°C / 79°F 24°C / 75°F
Humidity Altimeter Pressure
89% 30.1" Hg 1019.3 hPa